sensor_id;sensor_type;location;lat;lon;timestamp;pressure;altitude;pressure_sealevel;temperature;humidity
59329;BME280;45100;46.926;7.452;2024-01-30T00:01:53;96728.99;;;1.60;100.00
59329;BME280;45100;46.926;7.452;2024-01-30T00:04:30;96733.40;;;1.57;100.00
59329;BME280;45100;46.926;7.452;2024-01-30T00:09:56;96724.64;;;1.55;100.00
59329;BME280;45100;46.926;7.452;2024-01-30T00:13:02;96723.52;;;1.51;100.00
59329;BME280;45100;46.926;7.452;2024-01-30T00:15:06;96726.39;;;1.47;100.00
59329;BME280;45100;46.926;7.452;2024-01-30T00:17:27;96728.33;;;1.43;100.00
59329;BME280;45100;46.926;7.452;2024-01-30T00:20:06;96727.30;;;1.38;100.00
59329;BME280;45100;46.926;7.452;2024-01-30T00:22:26;96728.97;;;1.35;100.00
59329;BME280;45100;46.926;7.452;2024-01-30T00:24:57;96725.23;;;1.32;100.00
59329;BME280;45100;46.926;7.452;2024-01-30T00:27:28;96727.70;;;1.29;100.00
59329;BME280;45100;46.926;7.452;2024-01-30T00:29:57;96731.35;;;1.30;100.00
59329;BME280;45100;46.926;7.452;2024-01-30T00:32:28;96729.04;;;1.30;100.00
59329;BME280;45100;46.926;7.452;2024-01-30T00:35:04;96726.75;;;1.29;100.00
59329;BME280;45100;46.926;7.452;2024-01-30T00:37:52;96728.73;;;1.29;100.00
59329;BME280;45100;46.926;7.452;2024-01-30T00:40:10;96728.81;;;1.29;100.00
59329;BME280;45100;46.926;7.452;2024-01-30T00:42:45;96720.70;;;1.26;100.00
59329;BME280;45100;46.926;7.452;2024-01-30T00:45:30;96723.17;;;1.22;100.00
59329;BME280;45100;46.926;7.452;2024-01-30T00:47:36;96723.66;;;1.19;100.00
59329;BME280;45100;46.926;7.452;2024-01-30T00:50:15;96723.97;;;1.17;100.00
59329;BME280;45100;46.926;7.452;2024-01-30T00:52:47;96727.32;;;1.14;100.00
59329;BME280;45100;46.926;7.452;2024-01-30T00:55:04;96724.55;;;1.10;100.00
59329;BME280;45100;46.926;7.452;2024-01-30T00:57:50;96728.69;;;1.07;100.00
59329;BME280;45100;46.926;7.452;2024-01-30T01:00:16;96726.84;;;1.06;100.00
59329;BME280;45100;46.926;7.452;2024-01-30T01:02:50;96727.02;;;1.03;100.00
59329;BME280;45100;46.926;7.452;2024-01-30T01:05:06;96724.30;;;1.02;100.00
59329;BME280;45100;46.926;7.452;2024-01-30T01:07:35;96728.67;;;1.02;100.00
59329;BME280;45100;46.926;7.452;2024-01-30T01:10:12;96727.89;;;1.01;100.00
59329;BME280;45100;46.926;7.452;2024-01-30T01:12:39;96728.28;;;1.01;100.00
59329;BME280;45100;46.926;7.452;2024-01-30T01:15:12;96725.10;;;1.01;100.00
59329;BME280;45100;46.926;7.452;2024-01-30T01:17:38;96723.11;;;0.99;100.00
59329;BME280;45100;46.926;7.452;2024-01-30T01:20:08;96722.87;;;0.96;100.00
59329;BME280;45100;46.926;7.452;2024-01-30T01:22:39;96724.38;;;0.94;100.00
59329;BME280;45100;46.926;7.452;2024-01-30T01:25:14;96725.80;;;0.90;100.00
59329;BME280;45100;46.926;7.452;2024-01-30T01:27:43;96729.16;;;0.88;100.00
59329;BME280;45100;46.926;7.452;2024-01-30T01:30:11;96729.95;;;0.86;100.00
59329;BME280;45100;46.926;7.452;2024-01-30T01:32:50;96728.75;;;0.84;100.00
59329;BME280;45100;46.926;7.452;2024-01-30T01:35:10;96729.64;;;0.80;100.00
59329;BME280;45100;46.926;7.452;2024-01-30T01:37:41;96731.85;;;0.78;100.00
59329;BME280;45100;46.926;7.452;2024-01-30T01:40:20;96729.23;;;0.78;100.00
59329;BME280;45100;46.926;7.452;2024-01-30T01:42:56;96727.72;;;0.78;100.00
59329;BME280;45100;46.926;7.452;2024-01-30T01:45:12;96728.34;;;0.78;100.00
59329;BME280;45100;46.926;7.452;2024-01-30T01:47:51;96727.01;;;0.80;100.00
59329;BME280;45100;46.926;7.452;2024-01-30T01:50:15;96727.42;;;0.79;100.00
59329;BME280;45100;46.926;7.452;2024-01-30T01:53:00;96720.72;;;0.78;100.00
59329;BME280;45100;46.926;7.452;2024-01-30T01:55:48;96719.12;;;0.77;100.00
59329;BME280;45100;46.926;7.452;2024-01-30T01:58:02;96720.17;;;0.76;100.00
59329;BME280;45100;46.926;7.452;2024-01-30T02:03:18;96722.24;;;0.73;100.00
59329;BME280;45100;46.926;7.452;2024-01-30T02:05:55;96723.17;;;0.72;100.00
59329;BME280;45100;46.926;7.452;2024-01-30T02:08:26;96719.84;;;0.71;100.00
59329;BME280;45100;46.926;7.452;2024-01-30T02:11:20;96721.51;;;0.72;100.00
59329;BME280;45100;46.926;7.452;2024-01-30T02:13:23;96717.86;;;0.70;100.00
59329;BME280;45100;46.926;7.452;2024-01-30T02:16:39;96714.27;;;0.68;100.00
59329;BME280;45100;46.926;7.452;2024-01-30T02:19:10;96718.55;;;0.66;100.00
59329;BME280;45100;46.926;7.452;2024-01-30T02:20:56;96723.58;;;0.64;100.00
59329;BME280;45100;46.926;7.452;2024-01-30T02:23:25;96720.41;;;0.61;100.00
59329;BME280;45100;46.926;7.452;2024-01-30T02:26:36;96720.78;;;0.59;100.00
59329;BME280;45100;46.926;7.452;2024-01-30T02:28:38;96721.67;;;0.58;100.00
59329;BME280;45100;46.926;7.452;2024-01-30T02:31:31;96722.12;;;0.56;100.00
59329;BME280;45100;46.926;7.452;2024-01-30T02:33:55;96716.01;;;0.56;100.00
59329;BME280;45100;46.926;7.452;2024-01-30T02:35:59;96716.97;;;0.55;100.00
59329;BME280;45100;46.926;7.452;2024-01-30T02:38:27;96716.09;;;0.56;100.00
59329;BME280;45100;46.926;7.452;2024-01-30T02:40:57;96716.24;;;0.57;100.00
59329;BME280;45100;46.926;7.452;2024-01-30T02:43:27;96719.36;;;0.59;100.00
59329;BME280;45100;46.926;7.452;2024-01-30T02:46:07;96715.61;;;0.60;100.00
59329;BME280;45100;46.926;7.452;2024-01-30T02:49:08;96712.19;;;0.63;100.00
59329;BME280;45100;46.926;7.452;2024-01-30T02:53:39;96711.17;;;0.65;100.00
59329;BME280;45100;46.926;7.452;2024-01-30T02:56:03;96711.31;;;0.66;100.00
59329;BME280;45100;46.926;7.452;2024-01-30T02:58:33;96709.18;;;0.68;100.00
59329;BME280;45100;46.926;7.452;2024-01-30T03:01:08;96708.14;;;0.69;100.00
59329;BME280;45100;46.926;7.452;2024-01-30T03:03:37;96709.91;;;0.71;100.00
59329;BME280;45100;46.926;7.452;2024-01-30T03:06:27;96708.15;;;0.71;100.00
59329;BME280;45100;46.926;7.452;2024-01-30T03:09:11;96705.14;;;0.70;100.00
59329;BME280;45100;46.926;7.452;2024-01-30T03:11:08;96705.77;;;0.67;100.00
59329;BME280;45100;46.926;7.452;2024-01-30T03:16:35;96703.28;;;0.63;100.00
59329;BME280;45100;46.926;7.452;2024-01-30T03:19:43;96703.36;;;0.63;100.00
59329;BME280;45100;46.926;7.452;2024-01-30T03:22:07;96702.74;;;0.64;100.00
59329;BME280;45100;46.926;7.452;2024-01-30T03:24:20;96700.20;;;0.64;100.00
59329;BME280;45100;46.926;7.452;2024-01-30T03:26:48;96702.58;;;0.62;100.00
59329;BME280;45100;46.926;7.452;2024-01-30T03:29:28;96700.52;;;0.58;100.00
59329;BME280;45100;46.926;7.452;2024-01-30T03:31:53;96700.83;;;0.55;100.00
59329;BME280;45100;46.926;7.452;2024-01-30T03:34:05;96700.96;;;0.51;100.00
59329;BME280;45100;46.926;7.452;2024-01-30T03:36:37;96702.95;;;0.48;100.00
59329;BME280;45100;46.926;7.452;2024-01-30T03:39:19;96702.78;;;0.45;100.00
59329;BME280;45100;46.926;7.452;2024-01-30T03:41:56;96702.55;;;0.44;100.00
59329;BME280;45100;46.926;7.452;2024-01-30T03:44:36;96700.24;;;0.44;100.00
59329;BME280;45100;46.926;7.452;2024-01-30T03:46:44;96698.73;;;0.45;100.00
59329;BME280;45100;46.926;7.452;2024-01-30T03:51:33;96700.56;;;0.48;100.00
59329;BME280;45100;46.926;7.452;2024-01-30T03:54:04;96703.44;;;0.49;100.00
59329;BME280;45100;46.926;7.452;2024-01-30T03:57:14;96704.47;;;0.51;100.00
59329;BME280;45100;46.926;7.452;2024-01-30T03:59:45;96708.14;;;0.52;100.00
59329;BME280;45100;46.926;7.452;2024-01-30T04:01:55;96707.80;;;0.51;100.00
59329;BME280;45100;46.926;7.452;2024-01-30T04:04:09;96713.21;;;0.51;100.00
59329;BME280;45100;46.926;7.452;2024-01-30T04:07:09;96708.12;;;0.50;100.00
59329;BME280;45100;46.926;7.452;2024-01-30T04:09:42;96712.91;;;0.49;100.00
59329;BME280;45100;46.926;7.452;2024-01-30T04:17:02;96705.02;;;0.54;100.00
59329;BME280;45100;46.926;7.452;2024-01-30T04:19:09;96703.45;;;0.55;100.00
59329;BME280;45100;46.926;7.452;2024-01-30T04:24:40;96704.41;;;0.61;100.00
59329;BME280;45100;46.926;7.452;2024-01-30T04:26:40;96703.30;;;0.64;100.00
59329;BME280;45100;46.926;7.452;2024-01-30T04:29:37;96701.15;;;0.64;100.00
59329;BME280;45100;46.926;7.452;2024-01-30T04:32:05;96708.62;;;0.65;100.00
59329;BME280;45100;46.926;7.452;2024-01-30T04:34:28;96707.19;;;0.65;100.00
59329;BME280;45100;46.926;7.452;2024-01-30T04:36:44;96706.33;;;0.64;100.00
59329;BME280;45100;46.926;7.452;2024-01-30T04:39:38;96705.51;;;0.63;100.00
59329;BME280;45100;46.926;7.452;2024-01-30T04:41:58;96705.42;;;0.60;100.00
59329;BME280;45100;46.926;7.452;2024-01-30T04:44:36;96703.67;;;0.57;100.00
59329;BME280;45100;46.926;7.452;2024-01-30T04:46:44;96707.41;;;0.54;100.00
59329;BME280;45100;46.926;7.452;2024-01-30T04:49:38;96703.27;;;0.51;100.00
59329;BME280;45100;46.926;7.452;2024-01-30T04:52:21;96703.61;;;0.49;100.00
59329;BME280;45100;46.926;7.452;2024-01-30T04:54:16;96706.77;;;0.47;100.00
59329;BME280;45100;46.926;7.452;2024-01-30T04:57:15;96705.02;;;0.47;100.00
59329;BME280;45100;46.926;7.452;2024-01-30T04:59:52;96714.50;;;0.45;100.00
59329;BME280;45100;46.926;7.452;2024-01-30T05:01:55;96715.67;;;0.44;100.00
59329;BME280;45100;46.926;7.452;2024-01-30T05:04:18;96715.12;;;0.44;100.00
59329;BME280;45100;46.926;7.452;2024-01-30T05:07:09;96717.34;;;0.44;100.00
59329;BME280;45100;46.926;7.452;2024-01-30T05:09:59;96717.82;;;0.43;100.00
59329;BME280;45100;46.926;7.452;2024-01-30T05:11:57;96717.34;;;0.43;100.00
59329;BME280;45100;46.926;7.452;2024-01-30T05:14:19;96721.62;;;0.44;100.00
59329;BME280;45100;46.926;7.452;2024-01-30T05:17:20;96721.55;;;0.44;100.00
59329;BME280;45100;46.926;7.452;2024-01-30T05:19:42;96723.94;;;0.44;100.00
59329;BME280;45100;46.926;7.452;2024-01-30T05:22:08;96723.30;;;0.44;100.00
59329;BME280;45100;46.926;7.452;2024-01-30T05:25:01;96724.17;;;0.44;100.00
59329;BME280;45100;46.926;7.452;2024-01-30T05:26:52;96726.72;;;0.45;100.00
59329;BME280;45100;46.926;7.452;2024-01-30T05:29:26;96728.33;;;0.45;100.00
59329;BME280;45100;46.926;7.452;2024-01-30T05:32:14;96730.56;;;0.45;100.00
59329;BME280;45100;46.926;7.452;2024-01-30T05:34:42;96728.47;;;0.44;100.00
59329;BME280;45100;46.926;7.452;2024-01-30T05:39:43;96724.18;;;0.40;100.00
59329;BME280;45100;46.926;7.452;2024-01-30T05:42:05;96721.70;;;0.35;100.00
59329;BME280;45100;46.926;7.452;2024-01-30T05:44:58;96724.62;;;0.32;100.00
59329;BME280;45100;46.926;7.452;2024-01-30T05:46:56;96722.47;;;0.30;100.00
59329;BME280;45100;46.926;7.452;2024-01-30T05:52:06;96722.56;;;0.31;100.00
59329;BME280;45100;46.926;7.452;2024-01-30T05:55:01;96723.11;;;0.32;100.00
59329;BME280;45100;46.926;7.452;2024-01-30T05:57:25;96725.44;;;0.34;100.00
59329;BME280;45100;46.926;7.452;2024-01-30T05:59:46;96722.50;;;0.34;100.00
59329;BME280;45100;46.926;7.452;2024-01-30T06:05:18;96725.81;;;0.29;100.00
59329;BME280;45100;46.926;7.452;2024-01-30T06:11:13;96734.23;;;0.25;100.00
59329;BME280;45100;46.926;7.452;2024-01-30T06:12:49;96733.75;;;0.23;100.00
59329;BME280;45100;46.926;7.452;2024-01-30T06:16:31;96733.83;;;0.22;100.00
59329;BME280;45100;46.926;7.452;2024-01-30T06:18:42;96738.03;;;0.24;100.00
59329;BME280;45100;46.926;7.452;2024-01-30T06:21:20;96744.81;;;0.25;100.00
59329;BME280;45100;46.926;7.452;2024-01-30T06:23:28;96745.59;;;0.23;100.00
59329;BME280;45100;46.926;7.452;2024-01-30T06:26:16;96751.78;;;0.23;100.00
59329;BME280;45100;46.926;7.452;2024-01-30T06:28:31;96753.62;;;0.22;100.00
59329;BME280;45100;46.926;7.452;2024-01-30T06:30:40;96755.61;;;0.22;100.00
59329;BME280;45100;46.926;7.452;2024-01-30T06:32:52;96752.75;;;0.22;100.00
59329;BME280;45100;46.926;7.452;2024-01-30T06:37:55;96758.86;;;0.23;100.00
59329;BME280;45100;46.926;7.452;2024-01-30T06:42:59;96760.70;;;0.21;100.00
59329;BME280;45100;46.926;7.452;2024-01-30T06:45:30;96756.62;;;0.21;100.00
59329;BME280;45100;46.926;7.452;2024-01-30T06:48:07;96762.35;;;0.20;100.00
59329;BME280;45100;46.926;7.452;2024-01-30T06:50:36;96761.88;;;0.20;100.00
59329;BME280;45100;46.926;7.452;2024-01-30T06:53:02;96761.09;;;0.21;100.00
59329;BME280;45100;46.926;7.452;2024-01-30T06:55:33;96762.20;;;0.22;100.00
59329;BME280;45100;46.926;7.452;2024-01-30T06:58:04;96765.78;;;0.22;100.00
59329;BME280;45100;46.926;7.452;2024-01-30T07:00:40;96765.46;;;0.22;100.00
59329;BME280;45100;46.926;7.452;2024-01-30T07:03:06;96765.38;;;0.22;100.00
59329;BME280;45100;46.926;7.452;2024-01-30T07:05:46;96771.10;;;0.23;100.00
59329;BME280;45100;46.926;7.452;2024-01-30T07:08:07;96769.83;;;0.24;100.00
59329;BME280;45100;46.926;7.452;2024-01-30T07:10:37;96773.10;;;0.26;100.00
59329;BME280;45100;46.926;7.452;2024-01-30T07:13:07;96772.64;;;0.28;100.00
59329;BME280;45100;46.926;7.452;2024-01-30T07:15:38;96776.70;;;0.31;100.00
59329;BME280;45100;46.926;7.452;2024-01-30T07:20:48;96781.48;;;0.35;100.00
59329;BME280;45100;46.926;7.452;2024-01-30T07:23:17;96780.06;;;0.37;100.00
59329;BME280;45100;46.926;7.452;2024-01-30T07:25:43;96781.42;;;0.40;100.00
59329;BME280;45100;46.926;7.452;2024-01-30T07:28:14;96779.91;;;0.41;100.00
59329;BME280;45100;46.926;7.452;2024-01-30T07:30:55;96785.47;;;0.42;100.00
59329;BME280;45100;46.926;7.452;2024-01-30T07:33:25;96790.50;;;0.42;100.00
59329;BME280;45100;46.926;7.452;2024-01-30T07:35:48;96790.26;;;0.43;100.00
59329;BME280;45100;46.926;7.452;2024-01-30T07:38:42;96792.70;;;0.45;100.00
59329;BME280;45100;46.926;7.452;2024-01-30T07:40:45;96793.44;;;0.47;100.00
59329;BME280;45100;46.926;7.452;2024-01-30T07:43:30;96798.70;;;0.49;100.00
59329;BME280;45100;46.926;7.452;2024-01-30T07:45:57;96795.67;;;0.51;100.00
59329;BME280;45100;46.926;7.452;2024-01-30T07:48:24;96803.31;;;0.54;100.00
59329;BME280;45100;46.926;7.452;2024-01-30T07:50:51;96802.77;;;0.56;100.00
59329;BME280;45100;46.926;7.452;2024-01-30T07:53:30;96805.31;;;0.60;100.00
59329;BME280;45100;46.926;7.452;2024-01-30T07:56:01;96803.81;;;0.63;100.00
59329;BME280;45100;46.926;7.452;2024-01-30T07:58:18;96805.02;;;0.65;100.00
59329;BME280;45100;46.926;7.452;2024-01-30T08:00:51;96800.08;;;0.69;100.00
59329;BME280;45100;46.926;7.452;2024-01-30T08:03:32;96805.59;;;0.75;100.00
59329;BME280;45100;46.926;7.452;2024-01-30T08:05:49;96808.95;;;0.79;100.00
59329;BME280;45100;46.926;7.452;2024-01-30T08:08:33;96810.69;;;0.85;100.00
59329;BME280;45100;46.926;7.452;2024-01-30T08:13:26;96814.24;;;0.97;100.00
59329;BME280;45100;46.926;7.452;2024-01-30T08:15:56;96816.70;;;1.04;100.00
59329;BME280;45100;46.926;7.452;2024-01-30T08:21:28;96817.98;;;1.18;100.00
59329;BME280;45100;46.926;7.452;2024-01-30T08:23:43;96822.52;;;1.27;100.00
59329;BME280;45100;46.926;7.452;2024-01-30T08:25:56;96822.13;;;1.37;100.00
59329;BME280;45100;46.926;7.452;2024-01-30T08:28:56;96820.05;;;1.50;100.00
59329;BME280;45100;46.926;7.452;2024-01-30T08:31:19;96821.65;;;1.61;100.00
59329;BME280;45100;46.926;7.452;2024-01-30T08:34:09;96814.13;;;1.71;100.00
59329;BME280;45100;46.926;7.452;2024-01-30T08:36:18;96809.64;;;1.81;100.00
59329;BME280;45100;46.926;7.452;2024-01-30T08:38:52;96807.48;;;1.91;100.00
59329;BME280;45100;46.926;7.452;2024-01-30T08:41:24;96812.80;;;2.01;100.00
59329;BME280;45100;46.926;7.452;2024-01-30T08:43:31;96809.66;;;2.08;100.00
59329;BME280;45100;46.926;7.452;2024-01-30T08:48:48;96815.23;;;2.18;100.00
59329;BME280;45100;46.926;7.452;2024-01-30T08:51:16;96813.38;;;2.22;100.00
59329;BME280;45100;46.926;7.452;2024-01-30T08:53:48;96811.59;;;2.26;100.00
59329;BME280;45100;46.926;7.452;2024-01-30T08:56:38;96811.92;;;2.30;100.00
59329;BME280;45100;46.926;7.452;2024-01-30T09:01:32;96813.38;;;2.39;99.92
59329;BME280;45100;46.926;7.452;2024-01-30T09:04:37;96820.64;;;2.43;99.50
59329;BME280;45100;46.926;7.452;2024-01-30T09:07:05;96819.91;;;2.46;98.73
59329;BME280;45100;46.926;7.452;2024-01-30T09:09:38;96822.84;;;2.48;98.48
59329;BME280;45100;46.926;7.452;2024-01-30T09:12:30;96823.94;;;2.52;98.46
59329;BME280;45100;46.926;7.452;2024-01-30T09:14:58;96822.46;;;2.57;98.43
59329;BME280;45100;46.926;7.452;2024-01-30T09:17:30;96823.02;;;2.62;98.34
59329;BME280;45100;46.926;7.452;2024-01-30T09:19:04;96822.59;;;2.67;98.40
59329;BME280;45100;46.926;7.452;2024-01-30T09:21:46;96820.41;;;2.71;98.13
59329;BME280;45100;46.926;7.452;2024-01-30T09:24:12;96820.14;;;2.75;97.79
59329;BME280;45100;46.926;7.452;2024-01-30T09:26:34;96814.62;;;2.77;97.53
59329;BME280;45100;46.926;7.452;2024-01-30T09:29:30;96810.55;;;2.80;97.30
59329;BME280;45100;46.926;7.452;2024-01-30T09:31:53;96812.36;;;2.83;97.04
59329;BME280;45100;46.926;7.452;2024-01-30T09:34:09;96816.88;;;2.87;96.92
59329;BME280;45100;46.926;7.452;2024-01-30T09:39:49;96819.70;;;3.00;95.72
59329;BME280;45100;46.926;7.452;2024-01-30T09:44:40;96829.23;;;3.18;95.04
59329;BME280;45100;46.926;7.452;2024-01-30T09:47:06;96830.45;;;3.27;94.81
59329;BME280;45100;46.926;7.452;2024-01-30T09:49:35;96827.84;;;3.33;94.73
59329;BME280;45100;46.926;7.452;2024-01-30T09:54:38;96825.78;;;3.31;93.70
59329;BME280;45100;46.926;7.452;2024-01-30T09:57:13;96829.00;;;3.28;93.98
59329;BME280;45100;46.926;7.452;2024-01-30T09:59:49;96829.17;;;3.27;94.30
59329;BME280;45100;46.926;7.452;2024-01-30T10:02:08;96830.50;;;3.31;94.71
59329;BME280;45100;46.926;7.452;2024-01-30T10:04:38;96829.73;;;3.35;94.47
59329;BME280;45100;46.926;7.452;2024-01-30T10:07:31;96826.52;;;3.40;94.42
59329;BME280;45100;46.926;7.452;2024-01-30T10:09:42;96828.38;;;3.44;94.10
59329;BME280;45100;46.926;7.452;2024-01-30T10:12:12;96825.16;;;3.49;94.00
59329;BME280;45100;46.926;7.452;2024-01-30T10:14:42;96826.34;;;3.59;93.89
59329;BME280;45100;46.926;7.452;2024-01-30T10:17:24;96824.99;;;3.69;93.71
59329;BME280;45100;46.926;7.452;2024-01-30T10:19:48;96820.63;;;3.82;93.51
59329;BME280;45100;46.926;7.452;2024-01-30T10:22:13;96819.70;;;3.95;93.36
59329;BME280;45100;46.926;7.452;2024-01-30T10:24:46;96814.39;;;4.05;92.55
59329;BME280;45100;46.926;7.452;2024-01-30T10:27:26;96810.05;;;4.14;91.84
59329;BME280;45100;46.926;7.452;2024-01-30T10:29:48;96808.35;;;4.24;90.67
59329;BME280;45100;46.926;7.452;2024-01-30T10:32:22;96803.86;;;4.33;90.24
59329;BME280;45100;46.926;7.452;2024-01-30T10:34:46;96808.77;;;4.42;89.41
59329;BME280;45100;46.926;7.452;2024-01-30T10:37:19;96811.80;;;4.51;89.31
59329;BME280;45100;46.926;7.452;2024-01-30T10:42:26;96811.39;;;4.64;86.79
59329;BME280;45100;46.926;7.452;2024-01-30T10:45:06;96807.11;;;4.65;85.89
59329;BME280;45100;46.926;7.452;2024-01-30T10:47:27;96807.41;;;4.69;86.36
59329;BME280;45100;46.926;7.452;2024-01-30T10:52:26;96802.27;;;4.82;86.19
59329;BME280;45100;46.926;7.452;2024-01-30T10:54:58;96804.36;;;4.87;87.06
59329;BME280;45100;46.926;7.452;2024-01-30T10:57:28;96802.08;;;4.93;87.31
59329;BME280;45100;46.926;7.452;2024-01-30T10:59:59;96800.87;;;4.95;87.76
59329;BME280;45100;46.926;7.452;2024-01-30T11:02:28;96793.77;;;4.93;88.33
59329;BME280;45100;46.926;7.452;2024-01-30T11:04:59;96795.09;;;4.91;88.44
59329;BME280;45100;46.926;7.452;2024-01-30T11:07:30;96795.35;;;4.89;87.64
59329;BME280;45100;46.926;7.452;2024-01-30T11:10:03;96790.12;;;4.90;87.27
59329;BME280;45100;46.926;7.452;2024-01-30T11:12:32;96792.08;;;4.93;87.63
59329;BME280;45100;46.926;7.452;2024-01-30T11:15:07;96787.51;;;5.00;87.08
59329;BME280;45100;46.926;7.452;2024-01-30T11:17:44;96787.14;;;5.09;86.86
59329;BME280;45100;46.926;7.452;2024-01-30T11:20:02;96782.37;;;5.20;86.71
59329;BME280;45100;46.926;7.452;2024-01-30T11:22:32;96783.62;;;5.32;85.68
59329;BME280;45100;46.926;7.452;2024-01-30T11:25:04;96789.42;;;5.46;85.86
59329;BME280;45100;46.926;7.452;2024-01-30T11:27:33;96787.93;;;5.58;85.16
59329;BME280;45100;46.926;7.452;2024-01-30T11:30:04;96782.30;;;5.70;84.64
59329;BME280;45100;46.926;7.452;2024-01-30T11:32:34;96781.46;;;5.81;84.12
59329;BME280;45100;46.926;7.452;2024-01-30T11:35:06;96779.31;;;5.92;84.53
59329;BME280;45100;46.926;7.452;2024-01-30T11:37:37;96776.89;;;6.03;84.12
59329;BME280;45100;46.926;7.452;2024-01-30T11:40:08;96775.36;;;6.16;83.42
59329;BME280;45100;46.926;7.452;2024-01-30T11:42:38;96764.55;;;6.27;83.55
59329;BME280;45100;46.926;7.452;2024-01-30T11:45:08;96757.81;;;6.36;82.69
59329;BME280;45100;46.926;7.452;2024-01-30T11:47:38;96761.01;;;6.43;82.08
59329;BME280;45100;46.926;7.452;2024-01-30T11:50:09;96759.34;;;6.50;80.70
59329;BME280;45100;46.926;7.452;2024-01-30T11:52:39;96755.91;;;6.54;79.58
59329;BME280;45100;46.926;7.452;2024-01-30T11:55:10;96757.48;;;6.55;77.46
59329;BME280;45100;46.926;7.452;2024-01-30T11:57:40;96754.95;;;6.56;77.41
59329;BME280;45100;46.926;7.452;2024-01-30T12:00:15;96757.92;;;6.61;77.23
59329;BME280;45100;46.926;7.452;2024-01-30T12:02:42;96750.48;;;6.65;77.22
59329;BME280;45100;46.926;7.452;2024-01-30T12:05:12;96748.99;;;6.68;77.16
59329;BME280;45100;46.926;7.452;2024-01-30T12:10:15;96745.97;;;6.74;76.58
59329;BME280;45100;46.926;7.452;2024-01-30T12:12:51;96745.79;;;6.82;76.78
59329;BME280;45100;46.926;7.452;2024-01-30T12:15:16;96741.64;;;6.92;76.53
59329;BME280;45100;46.926;7.452;2024-01-30T12:17:45;96740.05;;;7.01;76.38
59329;BME280;45100;46.926;7.452;2024-01-30T12:20:18;96743.79;;;7.13;76.58
59329;BME280;45100;46.926;7.452;2024-01-30T12:22:47;96742.69;;;7.25;76.22
59329;BME280;45100;46.926;7.452;2024-01-30T12:25:20;96741.81;;;7.39;76.14
59329;BME280;45100;46.926;7.452;2024-01-30T12:27:47;96737.62;;;7.52;75.72
59329;BME280;45100;46.926;7.452;2024-01-30T12:32:55;96729.60;;;7.76;75.22
59329;BME280;45100;46.926;7.452;2024-01-30T12:35:21;96733.23;;;7.88;74.72
59329;BME280;45100;46.926;7.452;2024-01-30T12:37:52;96726.38;;;7.97;74.60
59329;BME280;45100;46.926;7.452;2024-01-30T12:40:22;96726.47;;;8.06;74.28
59329;BME280;45100;46.926;7.452;2024-01-30T12:42:52;96724.31;;;8.11;74.13
59329;BME280;45100;46.926;7.452;2024-01-30T12:45:23;96723.27;;;8.13;74.13
59329;BME280;45100;46.926;7.452;2024-01-30T12:47:53;96720.34;;;8.13;73.78
59329;BME280;45100;46.926;7.452;2024-01-30T12:50:23;96721.38;;;8.12;73.21
59329;BME280;45100;46.926;7.452;2024-01-30T12:52:53;96715.09;;;8.09;72.76
59329;BME280;45100;46.926;7.452;2024-01-30T12:55:24;96711.98;;;8.08;72.70
59329;BME280;45100;46.926;7.452;2024-01-30T12:57:54;96713.57;;;8.09;72.78
59329;BME280;45100;46.926;7.452;2024-01-30T13:00:24;96715.69;;;8.11;72.67
59329;BME280;45100;46.926;7.452;2024-01-30T13:02:55;96716.97;;;8.13;72.98
59329;BME280;45100;46.926;7.452;2024-01-30T13:05:25;96714.25;;;8.16;73.15
59329;BME280;45100;46.926;7.452;2024-01-30T13:07:58;96711.59;;;8.19;73.42
59329;BME280;45100;46.926;7.452;2024-01-30T13:10:26;96713.94;;;8.21;73.05
59329;BME280;45100;46.926;7.452;2024-01-30T13:12:57;96713.27;;;8.23;72.79
59329;BME280;45100;46.926;7.452;2024-01-30T13:15:27;96709.45;;;8.24;72.86
59329;BME280;45100;46.926;7.452;2024-01-30T13:17:57;96707.54;;;8.23;72.60
59329;BME280;45100;46.926;7.452;2024-01-30T13:20:28;96708.02;;;8.23;72.19
59329;BME280;45100;46.926;7.452;2024-01-30T13:22:59;96702.45;;;8.23;72.33
59329;BME280;45100;46.926;7.452;2024-01-30T13:25:30;96703.89;;;8.26;73.15
59329;BME280;45100;46.926;7.452;2024-01-30T13:28:00;96704.54;;;8.29;73.33
59329;BME280;45100;46.926;7.452;2024-01-30T13:30:32;96702.75;;;8.32;72.61
59329;BME280;45100;46.926;7.452;2024-01-30T13:33:03;96708.45;;;8.36;72.33
59329;BME280;45100;46.926;7.452;2024-01-30T13:35:32;96704.05;;;8.41;72.09
59329;BME280;45100;46.926;7.452;2024-01-30T13:38:04;96704.39;;;8.46;71.26
59329;BME280;45100;46.926;7.452;2024-01-30T13:40:34;96705.95;;;8.51;71.33
59329;BME280;45100;46.926;7.452;2024-01-30T13:43:04;96702.09;;;8.54;71.28
59329;BME280;45100;46.926;7.452;2024-01-30T13:45:34;96706.34;;;8.57;71.22
59329;BME280;45100;46.926;7.452;2024-01-30T13:48:05;96702.80;;;8.61;71.43
59329;BME280;45100;46.926;7.452;2024-01-30T13:50:36;96705.84;;;8.65;70.74
59329;BME280;45100;46.926;7.452;2024-01-30T13:55:40;96706.92;;;8.71;70.99
59329;BME280;45100;46.926;7.452;2024-01-30T13:58:09;96704.75;;;8.72;69.56
59329;BME280;45100;46.926;7.452;2024-01-30T14:00:39;96707.34;;;8.74;70.30
59329;BME280;45100;46.926;7.452;2024-01-30T14:03:10;96708.56;;;8.76;70.25
59329;BME280;45100;46.926;7.452;2024-01-30T14:05:41;96713.61;;;8.78;69.99
59329;BME280;45100;46.926;7.452;2024-01-30T14:08:11;96711.05;;;8.79;70.10
59329;BME280;45100;46.926;7.452;2024-01-30T14:10:41;96714.81;;;8.80;69.87
59329;BME280;45100;46.926;7.452;2024-01-30T14:13:12;96713.68;;;8.80;69.75
59329;BME280;45100;46.926;7.452;2024-01-30T14:15:42;96715.80;;;8.79;70.13
59329;BME280;45100;46.926;7.452;2024-01-30T14:18:14;96715.05;;;8.78;70.83
59329;BME280;45100;46.926;7.452;2024-01-30T14:20:44;96716.97;;;8.75;71.83
59329;BME280;45100;46.926;7.452;2024-01-30T14:23:14;96717.78;;;8.73;71.62
59329;BME280;45100;46.926;7.452;2024-01-30T14:25:45;96716.91;;;8.69;72.00
59329;BME280;45100;46.926;7.452;2024-01-30T14:28:15;96718.34;;;8.67;71.62
59329;BME280;45100;46.926;7.452;2024-01-30T14:30:45;96720.81;;;8.66;72.29
59329;BME280;45100;46.926;7.452;2024-01-30T14:33:15;96718.59;;;8.64;72.01